Date,TemperatureHighF,TemperatureAvgF,TemperatureLowF,DewpointHighF,DewpointAvgF,DewpointLowF,HumidityHigh,HumidityAvg,HumidityLow,PressureMaxIn,PressureMinIn,WindSpeedMaxMPH,WindSpeedAvgMPH,GustSpeedMaxMPH,PrecipitationSumIn
2013-3-1,47,38,29,28,25,22,85,59,42,29.77,29.59,17,5,17,0.00
2013-3-2,42,35,30,23,20,19,73,56,43,29.77,29.69,15,5,15,0.00
2013-3-3,42,32,28,19,16,13,62,51,36,29.77,29.66,20,7,20,0.00
2013-3-4,45,34,26,18,16,11,59,47,32,29.91,29.75,21,8,21,0.00
2013-3-5,58,40,30,24,21,17,60,46,26,30.01,29.91,14,4,14,0.00
2013-3-6,44,40,36,32,27,23,73,61,51,29.95,29.83,30,9,30,0.01
2013-3-7,41,37,32,31,26,22,86,67,51,30.08,29.91,24,8,24,0.17
2013-3-8,42,35,30,33,29,24,88,79,57,30.19,29.99,18,2,18,0.21
2013-3-9,67,44,30,26,20,11,67,43,14,30.30,30.17,11,3,11,0.00
2013-3-10,52,33,25,31,23,19,80,68,43,30.37,30.30,8,1,8,0.00
2013-3-11,58,47,37,45,39,30,86,75,48,30.30,30.07,8,2,8,0.00
2013-3-12,60,52,43,56,46,33,91,83,64,30.07,29.65,14,3,14,1.18
2013-3-13,51,44,35,33,26,20,77,52,30,29.88,29.78,17,4,17,0.00
2013-3-14,45,35,29,22,11,4,56,37,23,29.96,29.84,28,8,28,0.00
2013-3-15,47,38,28,27,17,8,54,43,35,29.97,29.69,15,6,15,0.00
2013-3-16,42,35,32,28,23,17,83,63,42,29.90,29.76,12,2,12,0.04
2013-3-17,42,34,27,28,16,10,80,48,34,30.29,29.84,16,3,16,0.00
2013-3-18,37,31,24,29,18,7,87,60,40,30.39,30.00,13,3,13,0.00
2013-3-19,33,33,33,30,30,29,87,87,87,29.99,29.93,11,5,11,0.00
2013-3-20,46,39,31,20,16,14,54,41,29,29.88,29.76,18,6,18,0.00
2013-3-21,52,34,29,26,15,-16,80,47,27,29.83,29.62,14,5,14,0.00
2013-3-22,44,34,26,19,15,9,60,45,33,29.87,29.71,19,5,19,0.00
2013-3-23,49,39,32,20,17,14,54,40,28,29.93,29.82,24,7,24,0.00
2013-3-24,51,40,30,23,18,15,54,42,29,29.93,29.69,15,4,15,0.00
2013-3-25,41,38,35,32,27,22,83,64,51,30.36,29.46,21,3,21,0.06
2013-3-26,38,37,36,30,29,29,76,73,70,29.60,29.59,8,3,8,0.00
2013-3-27,57,44,31,28,24,18,64,46,25,29.98,29.85,17,5,17,0.00
2013-3-28,53,44,31,29,26,23,78,51,34,30.11,29.95,17,5,17,0.00
2013-3-29,57,44,30,29,25,17,77,49,28,30.14,30.06,17,3,17,0.00
2013-3-30,64,45,28,32,22,13,83,46,15,30.16,30.04,12,2,12,0.00
2013-3-31,58,42,28,32,25,20,76,53,31,30.11,29.87,13,2,13,0.00